Time;durP1;ratioP1;P1;durP2;ratioP2;P2;SDS_P1;SDS_P2;PMS_P1;PMS_P2;Temp;Humidity;BMP_temperature;BMP_pressure;BME280_temperature;BME280_humidity;BME280_pressure;Samples;Min_cycle;Max_cycle;Signal;HPM_P1;HPM_P2
2021/10/31 08:52:07;;;;;;;3.93;3.37;;;;;;;14.20;76.89;98253.19;5075144;27;38696;-82
2021/10/31 08:54:44;;;;;;;4.27;3.27;;;;;;;14.69;75.34;98292.41;5093173;27;41031;-82
2021/10/31 08:57:12;;;;;;;3.43;3.10;;;;;;;15.17;73.49;98313.00;5126986;27;43747;-81
2021/10/31 08:59:39;;;;;;;3.67;3.33;;;;;;;15.44;72.30;98326.53;5128044;27;42225;-83
2021/10/31 09:02:07;;;;;;;4.23;3.40;;;;;;;15.53;70.85;98319.50;5128302;27;40035;-82
2021/10/31 09:04:39;;;;;;;3.30;3.00;;;;;;;16.38;69.33;98303.50;5127031;27;40532;-82
2021/10/31 09:07:10;;;;;;;3.50;3.00;;;;;;;17.39;66.09;98336.53;5126779;27;42386;-82
2021/10/31 09:09:37;;;;;;;3.37;3.07;;;;;;;17.44;63.71;98299.44;5110771;27;42262;-82
2021/10/31 09:12:06;;;;;;;3.57;3.00;;;;;;;18.20;62.74;98329.25;5109727;27;38931;-82
2021/10/31 09:14:34;;;;;;;4.23;2.97;;;;;;;18.23;61.85;98319.06;5127775;27;41250;-82
2021/10/31 09:17:02;;;;;;;3.27;2.67;;;;;;;18.29;62.16;98317.59;5124057;27;43680;-86
2021/10/31 09:19:30;;;;;;;5.03;3.33;;;;;;;18.42;62.57;98311.81;5107584;27;43875;-82
2021/10/31 09:21:57;;;;;;;3.20;2.90;;;;;;;18.69;59.99;98341.16;5123117;27;40887;-81
2021/10/31 09:24:27;;;;;;;2.93;2.63;;;;;;;18.76;60.80;98326.13;5124660;27;41184;-83
2021/10/31 09:26:55;;;;;;;3.30;3.00;;;;;;;18.78;62.00;98326.81;5109021;27;41461;-82
2021/10/31 09:32:06;;;;;;;2.63;2.33;;;;;;;18.18;61.10;98291.88;5097504;27;39229;-86
2021/10/31 09:34:33;;;;;;;3.30;2.60;;;;;;;18.67;60.95;98321.69;5108438;27;40764;-84
2021/10/31 09:37:03;;;;;;;3.57;2.90;;;;;;;19.30;59.17;98307.84;5109120;27;41496;-86
2021/10/31 09:39:32;;;;;;;3.37;2.80;;;;;;;20.04;57.15;98333.81;5107618;27;41308;-83
2021/10/31 09:42:00;;;;;;;3.00;2.67;;;;;;;20.73;54.68;98340.47;5125927;27;40852;-83
2021/10/31 09:44:32;;;;;;;2.60;2.40;;;;;;;20.74;54.41;98323.31;5108643;27;41092;-85
2021/10/31 09:46:59;;;;;;;2.70;2.50;;;;;;;20.70;54.11;98319.28;5107052;27;42396;-85
2021/10/31 09:49:27;;;;;;;2.30;2.10;;;;;;;20.64;53.89;98303.84;5108424;27;41580;-83
2021/10/31 09:51:55;;;;;;;3.03;2.70;;;;;;;20.76;53.42;98319.47;5107668;27;40109;-82
2021/10/31 09:54:23;;;;;;;3.33;2.80;;;;;;;20.91;53.69;98299.88;5108677;27;41631;-86
2021/10/31 09:56:53;;;;;;;3.30;2.70;;;;;;;21.95;50.68;98326.38;5109043;27;42757;-81
2021/10/31 09:59:25;;;;;;;3.70;2.73;;;;;;;22.40;50.22;98315.53;5078463;28;42028;-88
2021/10/31 10:02:11;;;;;;;2.83;2.60;;;;;;;22.46;48.88;98292.41;5111585;28;40361;-82
2021/10/31 10:04:49;;;;;;;3.27;2.30;;;;;;;22.54;49.56;98301.25;5089658;28;41064;-88
2021/10/31 10:07:20;;;;;;;3.27;2.33;;;;;;;22.49;50.02;98303.66;5095039;28;43019;-89
2021/10/31 10:09:52;;;;;;;2.20;2.00;;;;;;;23.52;47.77;98305.47;5095198;28;42563;-88
2021/10/31 10:12:23;;;;;;;2.33;2.20;;;;;;;25.54;45.79;98309.00;5093965;28;38770;-89
2021/10/31 10:14:56;;;;;;;2.67;2.47;;;;;;;27.26;42.83;98315.25;5095341;28;41097;-93
2021/10/31 10:17:24;;;;;;;2.40;2.20;;;;;;;29.32;39.39;98332.50;5078159;28;41665;-89
2021/10/31 10:19:56;;;;;;;2.80;2.60;;;;;;;30.86;36.47;98331.69;5095333;28;41598;-91
2021/10/31 10:22:25;;;;;;;2.83;2.60;;;;;;;31.89;33.08;98330.06;5090747;28;40349;-87
2021/10/31 10:24:55;;;;;;;3.20;2.90;;;;;;;33.11;31.06;98335.66;5108775;28;40825;-89
2021/10/31 10:27:27;;;;;;;2.70;2.50;;;;;;;34.79;28.94;98339.16;5094624;28;45504;-90
2021/10/31 10:29:56;;;;;;;2.40;2.20;;;;;;;35.98;27.45;98299.75;5112213;28;42657;-90
2021/10/31 10:32:26;;;;;;;2.25;2.00;;;;;;;37.75;25.30;98331.00;5093737;28;39895;-91
2021/10/31 10:34:55;;;;;;;2.60;2.40;;;;;;;39.40;23.34;98337.38;5095385;28;40864;-91
2021/10/31 10:37:27;;;;;;;2.13;2.03;;;;;;;40.17;22.64;98313.06;5077955;28;41712;-93
2021/10/31 10:39:56;;;;;;;2.28;2.08;;;;;;;41.47;20.80;98321.28;5110949;28;42281;-89
2021/10/31 10:42:28;;;;;;;2.70;2.50;;;;;;;42.42;19.26;98332.53;5093295;28;39798;-87
2021/10/31 10:44:58;;;;;;;2.42;2.22;;;;;;;42.85;18.32;98305.00;5094116;28;41874;-85
2021/10/31 10:47:26;;;;;;;2.05;1.95;;;;;;;41.87;18.61;98299.31;5076528;28;41940;-89
2021/10/31 10:49:56;;;;;;;2.35;2.15;;;;;;;38.97;21.48;98266.38;5094280;28;41099;-89
2021/10/31 10:52:27;;;;;;;2.30;2.20;;;;;;;37.27;23.68;98264.34;5093970;28;39391;-88
2021/10/31 10:54:59;;;;;;;2.00;1.90;;;;;;;37.32;24.85;98253.28;5094706;28;40758;-91
2021/10/31 10:57:31;;;;;;;1.98;1.88;;;;;;;39.20;23.59;98237.88;5079204;28;42843;-89
2021/10/31 11:00:03;;;;;;;2.22;2.03;;;;;;;40.22;21.82;98256.66;5091575;28;42425;-91
2021/10/31 11:02:31;;;;;;;2.33;2.22;;;;;;;39.49;22.08;98241.38;5086877;28;39913;-88
2021/10/31 11:05:02;;;;;;;2.22;2.03;;;;;;;38.65;23.59;98220.78;5094614;28;41902;-86
2021/10/31 11:07:40;;;;;;;2.33;2.13;;;;;;;38.89;23.61;98220.78;5110889;28;43765;-89
2021/10/31 11:10:18;;;;;;;2.60;2.40;;;;;;;38.57;22.28;98218.66;5109176;27;43042;-87
2021/10/31 11:12:50;;;;;;;2.38;2.20;;;;;;;37.32;23.24;98214.59;5094534;28;39944;-92
2021/10/31 11:15:20;;;;;;;2.00;1.90;;;;;;;35.71;24.36;98191.69;5111258;28;41675;-88
2021/10/31 11:17:50;;;;;;;2.50;2.30;;;;;;;34.44;25.64;98193.94;5094838;28;43262;-87
2021/10/31 11:20:20;;;;;;;2.23;2.13;;;;;;;33.17;27.23;98164.47;5095969;28;42146;-86
2021/10/31 11:22:50;;;;;;;2.20;2.00;;;;;;;32.22;28.78;98160.25;5094746;28;38731;-86
2021/10/31 11:25:19;;;;;;;2.13;1.93;;;;;;;31.48;30.53;98123.94;5094368;28;40981;-87
2021/10/31 11:27:50;;;;;;;2.40;2.20;;;;;;;30.87;30.16;98136.47;5094328;28;42801;-85
2021/10/31 11:30:20;;;;;;;2.57;2.37;;;;;;;30.29;31.24;98117.47;5094497;28;41206;-89
2021/10/31 11:32:48;;;;;;;2.40;2.20;;;;;;;29.90;32.39;98103.47;5094402;28;38749;-87
2021/10/31 11:35:18;;;;;;;2.20;2.03;;;;;;;30.38;32.38;98113.28;5110336;28;42026;-88
2021/10/31 11:37:52;;;;;;;2.37;2.17;;;;;;;30.56;31.93;98109.59;5093389;28;43177;-90
2021/10/31 11:40:20;;;;;;;2.83;2.63;;;;;;;30.55;31.55;98086.06;5102149;28;42286;-86
2021/10/31 11:42:49;;;;;;;1.97;1.87;;;;;;;31.08;31.41;98094.75;5112086;28;40662;-88
2021/10/31 11:45:19;;;;;;;2.30;2.00;;;;;;;32.75;28.65;98117.66;5094091;28;41985;-89
2021/10/31 11:48:08;;;;;;;2.57;2.27;;;;;;;34.26;28.03;98117.41;5093517;28;43114;-89
2021/10/31 11:50:36;;;;;;;2.30;2.10;;;;;;;35.96;25.22;98135.78;5093877;28;41781;-91
2021/10/31 11:53:04;;;;;;;1.83;1.73;;;;;;;35.93;25.11;98139.91;5093898;28;40753;-88
2021/10/31 11:55:45;;;;;;;1.80;1.70;;;;;;;35.32;25.75;98107.91;5094302;28;40683;-92
2021/10/31 11:59:01;;;;;;;1.90;1.80;;;;;;;34.41;26.42;98103.72;5093092;28;42009;-89
2021/10/31 12:01:45;;;;;;;2.50;2.30;;;;;;;35.36;25.75;98098.81;5077456;28;42270;-93
2021/10/31 12:04:47;;;;;;;1.90;1.80;;;;;;;36.35;24.16;98117.50;5093273;28;40328;-89
2021/10/31 12:07:40;;;;;;;2.30;2.10;;;;;;;37.20;23.35;98106.41;5106365;27;41732;-92
2021/10/31 12:10:27;;;;;;;2.00;1.80;;;;;;;36.78;23.15;98119.88;5095072;27;41988;-87
2021/10/31 12:13:11;;;;;;;2.20;2.00;;;;;;;35.56;24.19;98109.03;5096403;27;40772;-90
2021/10/31 12:16:12;;;;;;;2.20;2.00;;;;;;;35.45;24.54;98113.72;5082396;27;38992;-91
2021/10/31 12:18:44;;;;;;;1.97;1.83;;;;;;;35.55;24.00;98101.88;5089709;27;40747;-90
2021/10/31 12:21:19;;;;;;;1.60;1.50;;;;;;;35.18;24.68;98094.66;5094301;27;42199;-91
2021/10/31 12:23:57;;;;;;;2.83;1.70;;;;;;;34.67;25.08;98084.59;5096726;27;41574;-93
2021/10/31 12:26:27;;;;;;;2.00;1.90;;;;;;;33.69;26.71;98063.13;5094095;27;39020;-89
2021/10/31 12:29:09;;;;;;;1.63;1.53;;;;;;;32.89;27.51;98068.72;5091351;28;42339;-89
2021/10/31 12:31:39;;;;;;;1.90;1.77;;;;;;;32.08;28.01;98068.50;5080812;27;41703;-90
2021/10/31 12:34:11;;;;;;;1.87;1.77;;;;;;;31.51;29.49;98046.81;5095355;27;41091;-89
2021/10/31 12:36:41;;;;;;;1.93;1.80;;;;;;;31.61;29.86;98038.75;5091691;28;39916;-88
2021/10/31 12:39:46;;;;;;;1.70;1.60;;;;;;;31.88;28.94;98046.31;5092624;27;40735;-92
2021/10/31 12:42:15;;;;;;;1.77;1.67;;;;;;;31.33;29.57;98030.66;5111651;27;42582;-89
2021/10/31 12:44:46;;;;;;;2.03;1.83;;;;;;;31.54;29.38;98023.56;5085566;28;42692;-88
2021/10/31 12:47:19;;;;;;;2.40;1.77;;;;;;;31.39;29.34;98015.97;5092424;28;38781;-86
2021/10/31 12:49:48;;;;;;;1.50;1.40;;;;;;;31.81;29.55;98026.47;5093053;28;40750;-88
2021/10/31 12:52:25;;;;;;;1.70;1.60;;;;;;;32.36;28.52;97997.09;5092925;28;41773;-91
2021/10/31 12:55:02;;;;;;;1.53;1.43;;;;;;;33.60;27.04;98031.78;5108403;28;41531;-90
2021/10/31 12:57:30;;;;;;;1.53;1.40;;;;;;;33.62;24.73;98037.00;5088910;28;40329;-89
2021/10/31 13:00:03;;;;;;;1.37;1.27;;;;;;;33.23;26.12;98030.91;5091816;28;42201;-87
2021/10/31 13:02:34;;;;;;;1.73;1.30;;;;;;;32.53;26.55;98015.34;5109585;28;43083;-89
2021/10/31 13:05:04;;;;;;;1.30;1.20;;;;;;;31.93;27.21;98017.06;5089898;28;42698;-90
2021/10/31 13:07:43;;;;;;;1.50;1.40;;;;;;;31.27;27.60;98004.28;5093121;28;39122;-91
2021/10/31 13:10:14;;;;;;;1.50;1.40;;;;;;;30.67;28.82;97992.00;5091768;28;41628;-87
2021/10/31 13:12:42;;;;;;;1.30;1.20;;;;;;;30.28;29.81;97969.13;5093654;28;41704;-85
2021/10/31 13:15:15;;;;;;;1.23;1.10;;;;;;;29.92;29.48;97966.72;5092348;28;41914;-86
2021/10/31 13:17:49;;;;;;;1.07;1.00;;;;;;;29.72;29.75;97960.81;5093159;28;38750;-90
2021/10/31 13:20:20;;;;;;;1.37;0.93;;;;;;;29.74;30.71;97948.59;5091607;28;40711;-86
2021/10/31 13:22:50;;;;;;;1.30;1.20;;;;;;;29.67;29.83;97950.63;5089379;28;41752;-88
2021/10/31 13:25:27;;;;;;;1.70;1.60;;;;;;;29.25;30.47;97941.75;5108611;28;41422;-90
2021/10/31 13:27:59;;;;;;;1.97;1.40;;;;;;;28.98;30.33;97948.72;5092923;28;39042;-89
2021/10/31 13:30:33;;;;;;;0.97;0.97;;;;;;;28.99;29.91;97934.03;5091368;28;41160;-89
2021/10/31 13:33:04;;;;;;;1.10;1.00;;;;;;;29.41;29.45;97949.25;5092029;28;42275;-89
2021/10/31 13:35:32;;;;;;;1.27;1.13;;;;;;;29.24;30.21;97926.44;5095575;28;42334;-89
2021/10/31 13:38:03;;;;;;;1.30;1.20;;;;;;;29.61;30.02;97927.84;5095324;28;40281;-90
2021/10/31 13:40:31;;;;;;;1.20;1.10;;;;;;;30.05;28.92;97930.13;5094839;28;42015;-88
2021/10/31 13:42:59;;;;;;;1.17;0.93;;;;;;;30.57;29.33;97919.94;5095535;28;42700;-89
2021/10/31 13:45:27;;;;;;;1.03;1.03;;;;;;;30.97;28.31;97928.00;5095056;28;41636;-89
2021/10/31 13:47:57;;;;;;;1.50;1.40;;;;;;;31.24;27.75;97931.75;5094302;28;38831;-87
2021/10/31 13:50:29;;;;;;;1.30;1.20;;;;;;;31.62;26.92;97932.84;5095022;28;40880;-90
2021/10/31 13:52:59;;;;;;;1.40;1.30;;;;;;;31.87;26.01;97941.41;5111523;28;41404;-87
2021/10/31 13:55:30;;;;;;;1.23;1.13;;;;;;;31.88;26.24;97940.31;5079561;28;42512;-84
2021/10/31 13:57:59;;;;;;;1.80;1.70;;;;;;;31.70;25.75;97954.31;5095526;28;39580;-87
2021/10/31 14:00:30;;;;;;;1.40;1.30;;;;;;;31.83;26.32;97939.41;5095497;28;40796;-84
2021/10/31 14:02:57;;;;;;;1.00;0.90;;;;;;;31.63;26.75;97927.09;5095051;28;42674;-90
2021/10/31 14:05:30;;;;;;;1.27;1.17;;;;;;;31.46;27.34;97929.06;5095450;28;42721;-89
2021/10/31 14:08:01;;;;;;;1.50;1.13;;;;;;;31.41;28.24;97926.22;5095283;28;38928;-89
2021/10/31 14:10:36;;;;;;;2.00;1.30;;;;;;;31.37;28.08;97916.88;5112716;28;42736;-88
2021/10/31 14:13:06;;;;;;;1.50;1.40;;;;;;;30.66;28.27;97902.09;5111653;28;42475;-84
2021/10/31 14:15:34;;;;;;;1.47;1.30;;;;;;;30.01;28.60;97888.84;5094944;28;41169;-88
2021/10/31 14:18:04;;;;;;;1.50;1.40;;;;;;;29.46;29.31;97894.78;5112418;28;40733;-86
2021/10/31 14:20:35;;;;;;;1.60;1.50;;;;;;;28.59;30.14;97885.59;5095321;28;43076;-88
2021/10/31 14:23:04;;;;;;;1.27;1.17;;;;;;;27.98;30.93;97889.41;5112965;27;43480;-86
2021/10/31 14:25:41;;;;;;;1.20;1.10;;;;;;;27.30;31.98;97870.56;5095204;28;42832;-86
2021/10/31 14:28:11;;;;;;;1.53;1.43;;;;;;;26.89;32.78;97865.75;5094894;28;39170;-85
2021/10/31 14:30:40;;;;;;;1.73;1.03;;;;;;;26.41;33.26;97874.53;5111770;28;41748;-88
2021/10/31 14:33:21;;;;;;;1.17;1.00;;;;;;;25.97;34.04;97869.13;5110354;28;42671;-90
2021/10/31 14:35:53;;;;;;;1.00;0.90;;;;;;;25.49;34.78;97855.16;5112727;28;42245;-83
2021/10/31 14:38:23;;;;;;;1.10;1.00;;;;;;;25.17;35.62;97868.63;5091279;28;38860;-87
2021/10/31 14:41:13;;;;;;;1.13;1.03;;;;;;;24.72;36.34;97869.50;5110274;28;40559;-88
2021/10/31 14:43:43;;;;;;;1.20;1.10;;;;;;;24.35;37.00;97858.28;5101487;27;42528;-82
2021/10/31 14:46:13;;;;;;;0.93;0.93;;;;;;;24.04;37.91;97853.41;5092741;28;41597;-81
2021/10/31 14:48:43;;;;;;;1.10;1.00;;;;;;;23.82;38.13;97852.75;5110216;28;40126;-84
2021/10/31 14:51:33;;;;;;;1.00;1.00;;;;;;;23.45;38.75;97828.91;5109650;28;40969;-76
2021/10/31 14:54:10;;;;;;;0.77;0.77;;;;;;;23.44;39.33;97832.63;5091896;28;41635;-81
2021/10/31 14:56:41;;;;;;;1.30;1.07;;;;;;;23.26;39.41;97828.59;5109508;28;42220;-79
2021/10/31 14:59:11;;;;;;;1.20;1.10;;;;;;;23.18;39.73;97828.78;5110186;28;39935;-81
2021/10/31 15:01:46;;;;;;;2.87;2.17;;;;;;;22.98;40.21;97806.25;5093587;28;40709;-80
2021/10/31 15:04:15;;;;;;;1.53;1.40;;;;;;;22.95;40.47;97817.44;5092845;28;42006;-88
2021/10/31 15:06:45;;;;;;;1.93;1.73;;;;;;;22.87;40.96;97814.94;5108792;28;41857;-87
2021/10/31 15:09:14;;;;;;;2.00;1.43;;;;;;;22.72;41.30;97806.06;5091734;28;39205;-80
2021/10/31 15:11:42;;;;;;;1.20;1.10;;;;;;;22.51;41.38;97799.69;5093744;28;41844;-81
2021/10/31 15:14:10;;;;;;;2.00;1.33;;;;;;;22.33;42.54;97782.34;5091454;28;41820;-83
2021/10/31 15:16:38;;;;;;;1.30;1.20;;;;;;;22.15;42.42;97788.22;5109815;28;41351;-81
2021/10/31 15:19:07;;;;;;;1.03;1.03;;;;;;;21.99;43.07;97789.34;5110015;28;40007;-79
2021/10/31 15:21:39;;;;;;;0.83;0.83;;;;;;;21.74;43.54;97769.16;5094321;28;40685;-86
2021/10/31 15:24:10;;;;;;;1.00;0.90;;;;;;;21.64;43.56;97779.41;5093625;28;41715;-80
2021/10/31 15:26:40;;;;;;;1.47;1.17;;;;;;;21.45;44.16;97776.34;5093153;28;42570;-90
2021/10/31 15:29:09;;;;;;;1.23;1.13;;;;;;;21.22;44.64;97764.88;5093102;28;39423;-82
2021/10/31 15:31:38;;;;;;;1.83;1.47;;;;;;;21.08;45.11;97766.56;5093501;28;40381;-81
2021/10/31 15:34:06;;;;;;;1.30;1.20;;;;;;;20.85;45.63;97747.00;5089476;28;41410;-81
2021/10/31 15:36:34;;;;;;;1.13;1.00;;;;;;;20.69;46.98;97747.19;5093272;28;41356;-82
2021/10/31 15:39:01;;;;;;;1.53;1.10;;;;;;;20.49;46.88;97736.19;5092327;28;39254;-83
2021/10/31 15:41:31;;;;;;;2.03;1.50;;;;;;;20.27;47.58;97732.53;5092801;28;40862;-79
2021/10/31 15:43:59;;;;;;;1.63;0.97;;;;;;;20.07;47.83;97726.00;5091980;28;42295;-83
2021/10/31 15:46:27;;;;;;;1.77;1.20;;;;;;;19.79;48.47;97692.69;5092532;28;41674;-82
2021/10/31 15:48:54;;;;;;;1.80;1.40;;;;;;;19.71;49.47;97705.19;5108519;28;39299;-80
2021/10/31 15:51:22;;;;;;;1.30;1.20;;;;;;;19.56;49.68;97696.25;5108989;28;42646;-79
2021/10/31 15:53:49;;;;;;;1.87;1.43;;;;;;;19.41;49.70;97689.16;5110120;28;42573;-80
2021/10/31 15:56:17;;;;;;;0.93;0.90;;;;;;;19.27;50.20;97690.75;5108718;27;42549;-79
2021/10/31 15:58:47;;;;;;;1.37;1.27;;;;;;;19.11;50.73;97685.50;5092778;28;39464;-81
2021/10/31 16:01:16;;;;;;;1.30;1.20;;;;;;;18.93;50.83;97683.91;5092035;28;41902;-81
2021/10/31 16:03:45;;;;;;;2.63;1.60;;;;;;;18.78;52.62;97674.97;5108476;28;42653;-80
2021/10/31 16:06:13;;;;;;;2.43;1.60;;;;;;;18.56;52.60;97678.38;5092531;28;42362;-79
2021/10/31 16:08:40;;;;;;;1.70;1.60;;;;;;;18.39;52.56;97679.47;5108929;28;40778;-86
2021/10/31 16:11:08;;;;;;;2.30;2.10;;;;;;;18.28;52.94;97684.22;5090445;28;40571;-78
2021/10/31 16:13:35;;;;;;;2.50;2.03;;;;;;;18.06;53.89;97671.53;5114698;28;43043;-79
2021/10/31 16:16:05;;;;;;;1.60;1.50;;;;;;;17.98;54.07;97686.78;5110840;27;42516;-79
2021/10/31 16:18:32;;;;;;;2.00;1.80;;;;;;;17.78;53.95;97675.63;5116787;28;39823;-80
2021/10/31 16:21:03;;;;;;;1.67;1.53;;;;;;;17.71;53.95;97679.97;5095468;28;40700;-80
2021/10/31 16:23:30;;;;;;;1.97;1.77;;;;;;;17.54;54.11;97668.44;5083176;28;41697;-79
2021/10/31 16:25:59;;;;;;;1.93;1.73;;;;;;;17.52;54.39;97673.94;5084570;28;40935;-78
2021/10/31 16:28:26;;;;;;;2.30;2.03;;;;;;;17.46;54.59;97679.97;5093911;28;40387;-83
2021/10/31 16:30:55;;;;;;;1.73;1.63;;;;;;;17.33;54.68;97670.75;5076092;28;42332;-80
2021/10/31 16:33:24;;;;;;;1.87;1.67;;;;;;;17.27;54.65;97682.97;5061310;28;42526;-83
2021/10/31 16:35:52;;;;;;;2.00;1.53;;;;;;;17.23;55.45;97676.28;5073093;28;41033;-82
2021/10/31 16:38:19;;;;;;;1.90;1.77;;;;;;;17.13;56.14;97675.59;5074041;28;38725;-83
2021/10/31 16:40:47;;;;;;;2.57;2.00;;;;;;;16.97;56.03;97659.53;5091503;28;42629;-84
2021/10/31 16:43:16;;;;;;;2.43;2.20;;;;;;;16.74;55.97;97633.44;5090490;28;42697;-86
2021/10/31 16:45:46;;;;;;;2.57;2.33;;;;;;;16.83;56.04;97664.50;5055560;28;42235;-85
2021/10/31 16:48:13;;;;;;;2.00;1.80;;;;;;;16.79;56.22;97662.34;5071966;28;38736;-85
2021/10/31 16:50:43;;;;;;;3.30;2.33;;;;;;;16.58;56.51;97644.03;5071843;28;41861;-82
2021/10/31 16:53:11;;;;;;;2.30;2.10;;;;;;;16.56;56.51;97667.44;5088423;28;43844;-85
2021/10/31 16:55:39;;;;;;;2.63;2.23;;;;;;;16.49;56.71;97671.75;5072446;28;42216;-86
2021/10/31 16:58:07;;;;;;;2.50;2.30;;;;;;;16.33;57.08;97645.78;5071637;28;40078;-85
2021/10/31 17:00:35;;;;;;;3.63;3.03;;;;;;;16.33;57.27;97655.63;5072357;28;40638;-86
2021/10/31 17:03:04;;;;;;;2.67;2.33;;;;;;;16.14;57.68;97635.38;5089720;28;42665;-85
2021/10/31 17:05:32;;;;;;;3.53;2.50;;;;;;;16.05;57.33;97639.84;5089504;28;40828;-85
2021/10/31 17:08:18;;;;;;;3.20;2.50;;;;;;;15.96;58.03;97632.78;5091090;28;39759;-84
2021/10/31 17:10:55;;;;;;;2.93;2.63;;;;;;;15.94;58.50;97650.81;5092954;28;41807;-83
2021/10/31 17:13:24;;;;;;;3.27;2.97;;;;;;;15.92;59.78;97631.44;5072045;28;42927;-85
2021/10/31 17:15:51;;;;;;;3.20;2.63;;;;;;;15.87;59.68;97632.91;5092429;28;42289;-81
2021/10/31 17:18:19;;;;;;;3.23;2.50;;;;;;;15.84;59.87;97644.72;5074998;28;39368;-85
2021/10/31 17:20:47;;;;;;;2.37;2.17;;;;;;;15.71;60.07;97633.63;5071127;28;41811;-85
2021/10/31 17:23:17;;;;;;;4.10;2.53;;;;;;;15.76;60.64;97639.34;5090308;28;41423;-87
2021/10/31 17:25:47;;;;;;;3.47;3.00;;;;;;;15.71;60.10;97649.66;5091425;28;43018;-81
2021/10/31 17:28:16;;;;;;;2.93;2.47;;;;;;;15.50;60.02;97627.81;5091399;28;40051;-84
2021/10/31 17:30:45;;;;;;;3.17;2.80;;;;;;;15.56;60.13;97652.09;5092960;28;41655;-84
2021/10/31 17:33:13;;;;;;;2.90;2.43;;;;;;;15.40;60.12;97650.09;5074789;28;43150;-85
2021/10/31 17:35:41;;;;;;;3.47;2.50;;;;;;;15.30;59.76;97636.03;5075288;28;42235;-83
2021/10/31 17:38:08;;;;;;;3.33;2.90;;;;;;;15.31;60.70;97632.38;5091558;28;39444;-85
2021/10/31 17:40:38;;;;;;;2.97;2.37;;;;;;;15.23;60.40;97644.78;5091896;28;41873;-83
2021/10/31 17:43:07;;;;;;;3.77;2.60;;;;;;;15.18;61.59;97631.09;5091173;28;43621;-86
2021/10/31 17:45:35;;;;;;;2.97;2.40;;;;;;;15.01;61.35;97619.44;5074558;28;41458;-85
2021/10/31 17:48:03;;;;;;;3.93;2.70;;;;;;;15.05;61.57;97627.00;5091419;28;40028;-85
2021/10/31 17:50:31;;;;;;;3.10;2.80;;;;;;;14.90;61.29;97628.50;5091469;28;41703;-84
2021/10/31 17:52:59;;;;;;;2.43;2.23;;;;;;;14.94;61.45;97635.22;5074382;28;42996;-83
2021/10/31 17:55:28;;;;;;;3.40;3.10;;;;;;;14.82;61.42;97622.28;5074490;28;40880;-87
2021/10/31 17:57:58;;;;;;;4.30;3.20;;;;;;;14.83;61.75;97642.63;5091583;28;39880;-83
2021/10/31 18:00:27;;;;;;;3.47;2.57;;;;;;;14.76;61.51;97642.38;5073782;28;40968;-85
2021/10/31 18:02:56;;;;;;;4.13;2.63;;;;;;;14.64;61.26;97638.25;5075269;28;41763;-82
2021/10/31 18:05:25;;;;;;;3.17;2.80;;;;;;;14.64;61.21;97647.06;5076713;28;42307;-85
2021/10/31 18:07:54;;;;;;;4.53;3.47;;;;;;;14.59;61.48;97641.34;5067351;28;39645;-85
2021/10/31 18:10:22;;;;;;;8.27;5.30;;;;;;;14.54;61.39;97651.63;5083005;28;42136;-82
2021/10/31 18:12:51;;;;;;;11.03;5.97;;;;;;;14.50;61.34;97652.91;5058897;28;43106;-86
2021/10/31 18:15:20;;;;;;;6.43;4.17;;;;;;;14.31;61.10;97631.69;5090514;28;42447;-85
2021/10/31 18:17:48;;;;;;;5.70;3.70;;;;;;;14.34;62.09;97642.88;5075233;28;39082;-87
2021/10/31 18:20:18;;;;;;;4.30;3.37;;;;;;;14.37;62.24;97652.41;5090256;28;41881;-86
2021/10/31 18:22:47;;;;;;;4.17;3.10;;;;;;;14.31;62.09;97647.69;5079431;28;42801;-82
2021/10/31 18:25:16;;;;;;;4.10;3.10;;;;;;;14.20;62.53;97630.09;5089691;28;42497;-85
2021/10/31 18:27:44;;;;;;;5.37;4.43;;;;;;;14.22;62.55;97644.06;5074674;28;40518;-85
2021/10/31 18:30:14;;;;;;;5.33;3.63;;;;;;;14.19;62.80;97654.19;5073757;28;40798;-87
2021/10/31 18:32:44;;;;;;;4.07;3.03;;;;;;;14.19;63.10;97648.88;5091603;28;41759;-82
2021/10/31 18:35:12;;;;;;;4.40;2.87;;;;;;;14.11;63.07;97638.94;5090817;28;40925;-84
2021/10/31 18:37:43;;;;;;;4.03;3.30;;;;;;;14.13;62.86;97649.44;5091802;28;39971;-82
2021/10/31 18:40:13;;;;;;;4.43;3.07;;;;;;;14.03;62.35;97633.53;5056876;28;41383;-81
2021/10/31 18:42:43;;;;;;;5.03;3.30;;;;;;;14.00;62.71;97621.34;5073460;28;41687;-86
2021/10/31 18:45:12;;;;;;;4.40;2.67;;;;;;;14.09;62.61;97629.44;5090339;28;43870;-84
2021/10/31 18:47:43;;;;;;;4.13;2.83;;;;;;;14.10;62.81;97623.09;5074628;28;40348;-86
2021/10/31 18:50:13;;;;;;;2.97;2.47;;;;;;;14.26;62.39;97639.28;5073204;28;40902;-85
2021/10/31 18:52:41;;;;;;;4.63;3.00;;;;;;;14.33;63.68;97619.09;5074275;28;41732;-84
2021/10/31 18:55:10;;;;;;;4.57;3.97;;;;;;;14.34;63.36;97610.09;5090464;28;41239;-85
2021/10/31 18:57:38;;;;;;;5.77;3.40;;;;;;;14.34;62.78;97631.41;5074234;28;38994;-86
2021/10/31 19:00:07;;;;;;;3.00;2.60;;;;;;;14.35;62.80;97623.25;5089322;28;41789;-82
2021/10/31 19:02:36;;;;;;;4.00;2.83;;;;;;;14.31;62.57;97637.03;5084217;28;41979;-86
2021/10/31 19:05:05;;;;;;;3.00;2.50;;;;;;;13.99;62.49;97579.75;5074076;28;42273;-85
2021/10/31 19:07:35;;;;;;;3.33;2.73;;;;;;;14.17;62.75;97610.91;5089716;28;39889;-83
2021/10/31 19:10:03;;;;;;;2.47;2.20;;;;;;;14.27;62.88;97625.00;5090138;28;41092;-85
2021/10/31 19:12:32;;;;;;;3.90;2.80;;;;;;;14.28;62.33;97621.34;5073387;28;41547;-85
2021/10/31 19:14:59;;;;;;;2.70;2.43;;;;;;;14.15;62.44;97610.19;5073682;28;41180;-87
2021/10/31 19:17:28;;;;;;;3.63;2.87;;;;;;;14.18;62.68;97625.88;5073077;28;39473;-86
2021/10/31 19:19:55;;;;;;;4.70;2.77;;;;;;;14.01;63.38;97604.38;5089434;28;41957;-85
2021/10/31 19:22:23;;;;;;;3.30;2.60;;;;;;;14.05;63.33;97609.41;5073043;28;41766;-86
2021/10/31 19:24:52;;;;;;;4.83;2.93;;;;;;;13.99;62.99;97606.34;5072905;28;42180;-83
2021/10/31 19:27:19;;;;;;;4.63;3.20;;;;;;;13.90;63.17;97585.94;5089736;28;38891;-85
2021/10/31 19:29:47;;;;;;;4.10;2.97;;;;;;;13.94;62.70;97592.66;5072905;28;40812;-81
2021/10/31 19:32:15;;;;;;;3.60;2.53;;;;;;;14.06;62.40;97600.44;5088693;28;43614;-87
2021/10/31 19:34:43;;;;;;;5.37;3.67;;;;;;;13.92;62.50;97578.66;5089742;28;42954;-84
2021/10/31 19:37:10;;;;;;;3.53;2.63;;;;;;;13.93;62.61;97591.00;5089499;28;40148;-86
2021/10/31 19:39:38;;;;;;;4.07;2.80;;;;;;;13.87;62.41;97588.91;5089077;28;41629;-87
2021/10/31 19:42:09;;;;;;;3.97;2.83;;;;;;;13.71;62.69;97564.78;5089501;28;43787;-83
2021/10/31 19:44:37;;;;;;;5.17;3.43;;;;;;;13.77;62.80;97588.13;5090345;28;41633;-84
2021/10/31 19:47:05;;;;;;;3.93;3.20;;;;;;;13.77;62.45;97596.09;5071813;28;40319;-84
2021/10/31 19:49:33;;;;;;;4.43;2.80;;;;;;;13.78;62.50;97586.28;5090478;28;41364;-85
2021/10/31 19:52:00;;;;;;;3.47;3.00;;;;;;;13.74;62.21;97569.78;5072638;28;41955;-86
2021/10/31 19:54:28;;;;;;;4.90;3.53;;;;;;;13.86;62.36;97589.88;5091523;28;42147;-83
2021/10/31 19:56:55;;;;;;;5.20;2.77;;;;;;;13.85;61.80;97596.19;5073129;28;38992;-86
2021/10/31 19:59:25;;;;;;;6.30;3.70;;;;;;;13.71;62.44;97579.91;5072627;28;41292;-86
2021/10/31 20:01:52;;;;;;;3.13;2.73;;;;;;;13.70;62.26;97589.69;5071447;28;41696;-86
2021/10/31 20:04:21;;;;;;;4.83;3.10;;;;;;;13.60;62.48;97586.22;5089297;28;41980;-85
2021/10/31 20:06:51;;;;;;;2.90;2.53;;;;;;;13.44;62.74;97564.72;5063660;28;39645;-89
2021/10/31 20:09:21;;;;;;;4.30;3.00;;;;;;;13.10;62.63;97517.38;5069217;28;42129;-87
2021/10/31 20:11:49;;;;;;;4.73;3.03;;;;;;;13.29;62.75;97559.03;5053837;28;41922;-88
2021/10/31 20:14:22;;;;;;;4.57;3.10;;;;;;;13.25;62.61;97557.63;5052826;28;41614;-84
2021/10/31 20:16:53;;;;;;;5.87;3.47;;;;;;;13.33;62.83;97564.91;5084915;28;39778;-84
2021/10/31 20:19:22;;;;;;;3.50;2.77;;;;;;;13.16;62.53;97540.75;5088943;28;41829;-83
2021/10/31 20:21:52;;;;;;;4.80;3.73;;;;;;;13.17;62.49;97550.41;5072599;28;42364;-83
2021/10/31 20:24:22;;;;;;;3.97;2.70;;;;;;;13.25;62.64;97568.28;5072602;28;40759;-89
2021/10/31 20:26:53;;;;;;;4.47;3.27;;;;;;;13.21;62.68;97557.09;5040336;28;39372;-84
2021/10/31 20:29:22;;;;;;;4.87;3.43;;;;;;;13.23;62.63;97564.91;5051871;28;40511;-88
2021/10/31 20:31:54;;;;;;;6.07;3.97;;;;;;;13.21;62.65;97566.91;5052458;28;42431;-86
2021/10/31 20:34:22;;;;;;;3.77;3.37;;;;;;;13.17;62.64;97571.66;5052344;28;41850;-89
2021/10/31 20:36:50;;;;;;;5.30;3.83;;;;;;;13.04;62.73;97557.81;5053997;28;39798;-86
2021/10/31 20:39:17;;;;;;;5.83;4.33;;;;;;;13.11;62.73;97564.22;5069416;28;40946;-83
2021/10/31 20:41:44;;;;;;;5.37;3.40;;;;;;;12.97;62.92;97548.75;5090714;28;42610;-85
2021/10/31 20:44:12;;;;;;;6.17;3.87;;;;;;;13.11;62.71;97556.25;5089284;28;41433;-89